Terminal Aerodrome Forecast
Issued by NWS

Home | Current Version | Previous Version | Text Only | Print | Product List | Glossary On
Versions: 1 2 3 4 5 6 7 8 9 10 11 12 13
000
FTUS41 KCAR 281125
TAFBHB
TAF
KBHB 281125Z 2812/2912 22010KT P6SM -RA OVC050
      TEMPO 2812/2815 5SM -RA BR OVC035
     FM281500 24010KT P6SM VCSH OVC040
     FM281800 27012G20KT P6SM BKN040
     FM290000 30008KT P6SM SCT040
      AMD LTD TO CLD VIS AND WIND=

USA.gov is the U.S. government's official web portal to all federal, state and local government web resources and services.